Wayne, NJ (07474)

1:24 PM EST on November 22, 2017 (GMT -0500)
Broad Acres | | Change Station

Elev 175 ft 40.93 °N, 74.29 °W | Updated 10 seconds ago

Mostly Cloudy
Mostly Cloudy
50.2 °F
Feels Like 50.2 °F
N
0.0
Wind Variable Wind from SSW
Gusts 0.0 mph

Today
High -- | Low -- °F
--% Chance of Precip.
Yesterday
High -- | Low -- °F
Precip. -- in
Pressure 29.93 in
Visibility 10.0 miles
Clouds Overcast 4100 ft
Dew Point 37 °F
Humidity 61%
Rainfall 0.05 in
Snow Depth Not available.
6:52 AM 4:33 PM
Waxing Crescent, 16% visible
METAR KCDW 221753Z 31014G19KT 10SM -RA OVC041 09/04 A2991 RMK AO2 RAB1659 SLP133 P0000 60003 T00940039 10106 20050 51005
Pressure 29.93 in
Visibility 10.0 miles
Clouds Overcast 4100 ft
Dew Point 37 °F
Humidity 61%
Rainfall 0.05 in
Snow Depth Not available.
6:52 AM 4:33 PM
Waxing Crescent, 16% visible
METAR KCDW 221753Z 31014G19KT 10SM -RA OVC041 09/04 A2991 RMK AO2 RAB1659 SLP133 P0000 60003 T00940039 10106 20050 51005

Get Severe Weather Alerts

Thanks for signing up!

Be on the lookout for a verification email in your inbox.

You'll start receiving the daily forecast at 6 AM.

×

10-Day Weather Forecast

Almanac

Astronomy

Nov. 22, 2017 Rise Set
Actual Time
Civil Twilight
Nautical Twilight
Astronomical Twilight
Moon
Length of Visible Light
Length of Day
Tomorrow will be .
, % of the Moon is Illuminated

Today's Extremes

State Highs State Lows

Community

WunderPhotos

Category 6

Welcome to Category 6. This is the collective home for Weather Underground's featured writeups by Dr. Jeff Masters (right), Bob Henson (left), Chris Burt, and other regular contributors.

Nearby

Air Quality

  Air Quality AQ Index Pollutant
Not available.

Snow Depth

Station Depth Elevation

Earthquake Activity

City Distance Mag. Time & Date
Minimum magnitude displayed is 2.5.

Coastal Water Temperatures

Place Temperature

Stations

Nearby Weather Stations

Station Location Temp. Windchill Dew Point Humidity Wind Precip. Elev Updated Type
                   

Watches & Warnings

There are currently no watches in effect.